Weather History for Pecos, TX

Change the Weather History Date:

Thursday, September 6, 2012

  Actual Average Record
Temperature  
Mean Temperature 82 °F -  
Max Temperature 97 °F 93 °F 108 °F (1948)
Min Temperature 67 °F 63 °F 50 °F (1952)
Cooling Degree Days 16    
Growing Degree Days 32 (Base 50)    
Moisture  
Dew Point 61 °F    
Average Humidity 56    
Maximum Humidity 88    
Minimum Humidity 24    
Precipitation  
Precipitation 0.02 in - - ()
Sea Level Pressure  
Sea Level Pressure 29.98 in    
Wind  
Wind Speed 8 mph (East)    
Max Wind Speed 15 mph    
Max Gust Speed 24 mph    
Visibility 10 miles    
Events Rain , Thunderstorm    
Averages and records for this station are not official NWS values.
T = Trace of Precipitation, MM = Missing Value Source: NWS Daily Summary

Daily Weather History Graph

Daily Weather History Graph

Search for Another Location

Airport:

Trip Planner

Search our weather history database for the weather conditions in past years. The results will help you decide how hot, cold, wet, or windy it might be!

Date:

Astronomy

Sep. 06, 2012 Rise Set
Actual Time 7:33 AM CDT 8:10 PM CDT
Civil Twilight 7:08 AM CDT 8:35 PM CDT
Nautical Twilight 6:39 AM CDT 9:03 PM CDT
Astronomical Twilight 6:10 AM CDT 9:33 PM CDT
Moon 11:49 PM CDT (9/6) 1:08 PM CDT (9/6)
Length of Visible Light 13h 26m
Length of Day
12h 37m
Waning Gibbous, 67% of the Moon is Illuminated
Sep 6
Waning Gibbous
Sep 8
Last Quarter
Sep 15
New
Sep 22
First Quarter
Sep 29
Full

Hourly Weather History & Observations

Time (CDT) Temp. Heat Index Dew Point Humidity Pressure Visibility Wind Dir Wind Speed Gust Speed Precip Events Conditions
12:15 AM 72.0 °F - 66.9 °F 84% 29.98 in 10.0 mi North 11.5 mph - 0.02 in Rain , Thunderstorm Light Thunderstorms and Rain
12:35 AM 72.5 °F - 66.6 °F 82% 30.00 in 10.0 mi North 11.5 mph - 0.02 in   Mostly Cloudy
12:55 AM 72.5 °F - 65.8 °F 80% 30.01 in 10.0 mi NE 15.0 mph 20.7 mph 0.02 in   Mostly Cloudy
1:15 AM 72.5 °F - 65.7 °F 79% 30.00 in 10.0 mi NE 15.0 mph 23.0 mph N/A   Mostly Cloudy
1:55 AM 73.0 °F - 64.8 °F 75% 30.02 in 10.0 mi ENE 15.0 mph 20.7 mph N/A   Scattered Clouds
2:15 AM 73.0 °F - 64.6 °F 75% 30.02 in 10.0 mi NE 13.8 mph 24.2 mph N/A   Clear
2:35 AM 72.9 °F - 64.8 °F 76% 30.02 in 10.0 mi NE 12.7 mph 18.4 mph N/A   Clear
2:55 AM 72.5 °F - 64.4 °F 76% 30.01 in 10.0 mi ENE 10.4 mph - N/A   Clear
3:15 AM 72.5 °F - 62.4 °F 71% 30.01 in 10.0 mi ENE 13.8 mph - N/A   Clear
3:35 AM 71.6 °F - 63.3 °F 75% 30.00 in 10.0 mi ENE 12.7 mph 18.4 mph N/A   Clear
3:55 AM 72.1 °F - 63.0 °F 73% 29.99 in 10.0 mi East 8.1 mph - N/A   Clear
4:15 AM 71.2 °F - 63.9 °F 77% 30.00 in 10.0 mi South 6.9 mph - N/A   Clear
4:35 AM 70.7 °F - 64.4 °F 80% 30.00 in 10.0 mi South 8.1 mph - N/A   Clear
4:55 AM 70.7 °F - 64.0 °F 79% 30.00 in 10.0 mi SSW 4.6 mph - N/A   Clear
5:15 AM 70.3 °F - 64.6 °F 82% 30.00 in 10.0 mi West 4.6 mph - N/A   Clear
5:35 AM 69.8 °F - 64.8 °F 84% 29.99 in 10.0 mi West 5.8 mph - N/A   Clear
5:55 AM 69.6 °F - 64.6 °F 84% 29.99 in 10.0 mi WNW 5.8 mph - N/A   Clear
6:15 AM 69.3 °F - 64.4 °F 84% 30.00 in 10.0 mi WNW 3.5 mph - N/A   Clear
6:35 AM 69.1 °F - 64.0 °F 84% 30.00 in 10.0 mi Calm Calm - N/A   Clear
6:55 AM 69.1 °F - 64.2 °F 84% 30.00 in 10.0 mi Calm Calm - N/A   Clear
7:15 AM 69.6 °F - 64.6 °F 84% 30.00 in 10.0 mi SW 3.5 mph - N/A   Clear
7:35 AM 68.2 °F - 64.0 °F 87% 30.00 in 10.0 mi SW 4.6 mph - N/A   Clear
7:55 AM 67.6 °F - 63.9 °F 88% 30.00 in 10.0 mi South 5.8 mph - N/A   Clear
8:15 AM 68.0 °F - 64.4 °F 88% 30.02 in 10.0 mi Calm Calm - N/A   Clear
9:15 AM 72.5 °F - 64.4 °F 76% 30.02 in 10.0 mi Calm Calm - N/A   Clear
9:35 AM 73.9 °F - 64.2 °F 72% 30.03 in 10.0 mi Calm Calm - N/A   Clear
9:55 AM 75.4 °F - 64.0 °F 68% 30.03 in 10.0 mi Calm Calm - N/A   Clear
10:15 AM 77.2 °F - 63.9 °F 63% 30.04 in 10.0 mi Calm Calm - N/A   Clear
10:35 AM 78.6 °F - 63.7 °F 60% 30.04 in 10.0 mi Calm Calm - N/A   Clear
10:55 AM 80.4 °F 81.8 °F 63.5 °F 56% 30.04 in 10.0 mi Calm Calm - N/A   Clear
11:15 AM 81.9 °F 83.1 °F 63.0 °F 53% 30.04 in 10.0 mi East 6.9 mph - N/A   Clear
11:35 AM 83.3 °F 84.3 °F 62.8 °F 50% 30.04 in 10.0 mi East 6.9 mph - N/A   Clear
11:55 AM 83.3 °F 84.1 °F 62.4 °F 49% 30.04 in 10.0 mi ENE 8.1 mph - N/A   Clear
12:15 PM 84.0 °F 84.7 °F 62.6 °F 48% 30.03 in 10.0 mi ENE 8.1 mph - N/A   Clear
12:35 PM 85.6 °F 85.9 °F 61.7 °F 44% 30.03 in 10.0 mi NE 9.2 mph - N/A   Clear
12:55 PM 86.2 °F 86.8 °F 62.8 °F 45% 30.03 in 10.0 mi ENE 11.5 mph - N/A   Clear
1:15 PM 87.3 °F 87.5 °F 61.9 °F 42% 30.02 in 10.0 mi East 10.4 mph - N/A   Clear
1:35 PM 88.0 °F 87.9 °F 60.6 °F 40% 30.01 in 10.0 mi East 8.1 mph 16.1 mph N/A   Clear
1:55 PM 88.5 °F 88.3 °F 60.8 °F 39% 30.00 in 10.0 mi East 8.1 mph - N/A   Clear
2:15 PM 89.8 °F 89.7 °F 61.3 °F 38% 30.00 in 10.0 mi East 10.4 mph 16.1 mph N/A   Clear
2:35 PM 91.4 °F 91.7 °F 61.7 °F 37% 29.98 in 10.0 mi ENE 10.4 mph 16.1 mph N/A   Clear
2:55 PM 92.1 °F 92.1 °F 61.2 °F 35% 29.98 in 10.0 mi East 8.1 mph 18.4 mph N/A   Clear
3:15 PM 92.3 °F 92.3 °F 60.6 °F 35% 29.96 in 10.0 mi NE 6.9 mph - N/A   Clear
3:35 PM 93.9 °F 93.6 °F 60.1 °F 32% 29.95 in 10.0 mi ESE 6.9 mph - N/A   Clear
3:55 PM 94.3 °F 93.4 °F 58.8 °F 30% 29.93 in 10.0 mi East 4.6 mph - N/A   Clear
4:15 PM 94.3 °F 93.4 °F 58.3 °F 30% 29.92 in 10.0 mi ESE 8.1 mph - N/A   Clear
4:35 PM 95.0 °F 93.7 °F 57.6 °F 28% 29.91 in 10.0 mi ENE 6.9 mph - N/A   Clear
4:55 PM 95.7 °F 94.3 °F 56.3 °F 27% 29.91 in 10.0 mi East 8.1 mph - N/A   Clear
5:15 PM 96.4 °F 95.0 °F 56.5 °F 26% 29.90 in 10.0 mi ENE 6.9 mph - N/A   Clear
5:35 PM 96.8 °F 94.7 °F 54.5 °F 24% 29.90 in 10.0 mi ESE 4.6 mph - N/A   Clear
5:55 PM 96.4 °F 94.3 °F 53.8 °F 24% 29.90 in 10.0 mi SE 6.9 mph - N/A   Clear
6:15 PM 96.3 °F 94.0 °F 53.6 °F 24% 29.90 in 10.0 mi East 5.8 mph - N/A   Clear
6:35 PM 94.5 °F 92.1 °F 53.6 °F 25% 29.89 in 10.0 mi East 3.5 mph - N/A   Clear
7:15 PM 88.0 °F 85.9 °F 53.8 °F 31% 29.90 in 10.0 mi SSW 9.2 mph - N/A   Clear
7:35 PM 86.9 °F 85.1 °F 54.5 °F 33% 29.91 in 10.0 mi SE 12.7 mph 17.3 mph N/A   Clear
7:55 PM 86.9 °F 84.8 °F 53.1 °F 31% 29.90 in 10.0 mi South 6.9 mph - N/A   Clear
8:15 PM 85.6 °F 83.8 °F 53.6 °F 33% 29.91 in 10.0 mi South 10.4 mph - N/A   Clear
8:35 PM 84.2 °F 82.9 °F 54.7 °F 36% 29.91 in 10.0 mi SSW 4.6 mph - N/A   Clear
8:55 PM 82.8 °F 82.0 °F 55.4 °F 39% 29.90 in 10.0 mi SSW 5.8 mph - N/A   Clear
9:15 PM 81.7 °F 81.3 °F 55.9 °F 41% 29.91 in 10.0 mi SSW 4.6 mph - N/A   Clear
9:35 PM 80.6 °F 80.7 °F 56.8 °F 44% 29.91 in 10.0 mi SSW 5.8 mph - N/A   Clear
9:55 PM 78.1 °F - 58.6 °F 51% 29.92 in 10.0 mi SE 4.6 mph - N/A   Clear
10:15 PM 77.0 °F - 59.2 °F 54% 29.93 in 10.0 mi South 4.6 mph - N/A   Clear
10:35 PM 76.8 °F - 59.9 °F 56% 29.94 in 10.0 mi South 3.5 mph - N/A   Clear
11:15 PM 75.4 °F - 60.8 °F 60% 29.95 in 10.0 mi Calm Calm - N/A   Clear
11:35 PM 74.8 °F - 60.6 °F 61% 29.96 in 10.0 mi NE 5.8 mph - N/A   Clear
11:55 PM 74.5 °F - 59.2 °F 59% 29.96 in 10.0 mi NE 5.8 mph - N/A   Clear